createdAt,value
2023-09-27T00:00:21.902Z,101559.09
2023-09-27T00:02:48.435Z,101556.59
2023-09-27T00:05:15.312Z,101551.44
2023-09-27T00:07:42.673Z,101546.84
2023-09-27T00:10:10.897Z,101548.59
2023-09-27T00:12:38.400Z,101549.97
2023-09-27T00:15:07.126Z,101557.22
2023-09-27T00:17:33.670Z,101550.16
2023-09-27T00:20:03.877Z,101559.16
2023-09-27T00:22:30.366Z,101559.44
2023-09-27T00:24:57.972Z,101555.81
2023-09-27T00:27:25.675Z,101558.94
2023-09-27T00:29:52.739Z,101563.53
2023-09-27T00:32:19.705Z,101572.03
2023-09-27T00:34:46.207Z,101571.56
2023-09-27T00:37:12.716Z,101572.34
2023-09-27T00:39:43.033Z,101574.72
2023-09-27T00:42:09.567Z,101576.28
2023-09-27T00:44:36.214Z,101580.06
2023-09-27T00:47:04.985Z,101571.56
2023-09-27T00:49:32.096Z,101573.91
2023-09-27T00:51:59.364Z,101585.44
2023-09-27T00:54:26.770Z,101590.59
2023-09-27T00:56:53.867Z,101594.44
2023-09-27T00:59:20.677Z,101599.63
2023-09-27T01:01:47.542Z,101596.78
2023-09-27T01:04:14.922Z,101603.22
2023-09-27T01:06:42.840Z,101611.13
2023-09-27T01:09:09.295Z,101609.84
2023-09-27T01:11:35.821Z,101607.81
2023-09-27T01:14:02.345Z,101611.44
2023-09-27T01:16:28.884Z,101613.16
2023-09-27T01:18:55.959Z,101619.63
2023-09-27T01:21:22.496Z,101616.47
2023-09-27T01:23:51.327Z,101614.91
2023-09-27T01:26:19.599Z,101620.88
2023-09-27T01:28:47.541Z,101620.22
2023-09-27T01:31:14.368Z,101627.97
2023-09-27T01:33:41.479Z,101631.75
2023-09-27T01:36:08.773Z,101619.94
2023-09-27T01:38:35.509Z,101611.25
2023-09-27T01:41:02.278Z,101600.09
2023-09-27T01:43:29.163Z,101607.31
2023-09-27T01:45:55.758Z,101609.84
2023-09-27T01:48:23.045Z,101616.78
2023-09-27T01:50:49.984Z,101615.81
2023-09-27T01:53:16.561Z,101625.59
2023-09-27T01:55:43.054Z,101635.34
2023-09-27T01:58:09.550Z,101641.50
2023-09-27T02:00:37.167Z,101642.53
2023-09-27T02:03:04.412Z,101624.94
2023-09-27T02:05:31.869Z,101624.47
2023-09-27T02:07:59.032Z,101618.31
2023-09-27T02:10:25.963Z,101622.09
2023-09-27T02:12:52.533Z,101623.97
2023-09-27T02:15:19.254Z,101622.91
2023-09-27T02:17:45.919Z,101622.59
2023-09-27T02:20:19.040Z,101631.88
2023-09-27T02:22:48.827Z,101620.22
2023-09-27T02:25:15.958Z,101631.56
2023-09-27T02:27:43.441Z,101623.84
2023-09-27T02:30:15.023Z,101624.63
2023-09-27T02:32:43.075Z,101627.16
2023-09-27T02:35:10.812Z,101627.16
2023-09-27T02:37:39.288Z,101619.94
2023-09-27T02:40:15.668Z,101625.59
2023-09-27T02:42:45.435Z,101615.81
2023-09-27T02:45:13.122Z,101609.84
2023-09-27T02:47:41.134Z,101602.94
2023-09-27T02:50:11.863Z,101601.66
2023-09-27T02:52:41.552Z,101593.63
2023-09-27T02:55:11.556Z,101596.94
2023-09-27T02:57:38.252Z,101594.44
2023-09-27T03:00:07.316Z,101588.13
2023-09-27T03:02:34.669Z,101573.00
2023-09-27T03:05:01.603Z,101585.13
2023-09-27T03:07:28.238Z,101570.47
2023-09-27T03:09:54.737Z,101566.09
2023-09-27T03:12:21.198Z,101566.09
2023-09-27T03:14:48.076Z,101568.44
2023-09-27T03:17:14.580Z,101566.09
2023-09-27T03:19:41.052Z,101566.09
2023-09-27T03:22:08.257Z,101564.69
2023-09-27T03:24:35.405Z,101574.28
2023-09-27T03:27:04.109Z,101579.94
2023-09-27T03:29:31.655Z,101576.78
2023-09-27T03:31:58.281Z,101587.38
2023-09-27T03:34:24.800Z,101584.03
2023-09-27T03:36:57.216Z,101588.13
2023-09-27T03:39:23.960Z,101584.53
2023-09-27T03:41:51.840Z,101572.41
2023-09-27T03:44:18.508Z,101570.34
2023-09-27T03:46:45.017Z,101573.66
2023-09-27T03:49:14.021Z,101572.06
2023-09-27T03:51:40.599Z,101572.06
2023-09-27T03:54:07.300Z,101568.00
2023-09-27T03:56:33.820Z,101571.31
2023-09-27T03:59:00.481Z,101567.22
2023-09-27T04:01:27.242Z,101562.34
2023-09-27T04:03:53.828Z,101566.91
2023-09-27T04:06:21.046Z,101570.84
2023-09-27T04:08:47.555Z,101580.09
2023-09-27T04:11:14.133Z,101587.84
2023-09-27T04:13:41.161Z,101580.59
2023-09-27T04:16:07.688Z,101579.03
2023-09-27T04:18:34.352Z,101584.69
2023-09-27T04:21:10.400Z,101592.44
2023-09-27T04:23:37.526Z,101586.25
2023-09-27T04:26:07.632Z,101586.56
2023-09-27T04:28:34.505Z,101586.75
2023-09-27T04:31:01.618Z,101590.84
2023-09-27T04:33:28.276Z,101591.63
2023-09-27T04:35:54.826Z,101600.94
2023-09-27T04:38:22.297Z,101602.16
2023-09-27T04:40:48.929Z,101608.63
2023-09-27T04:43:15.376Z,101603.91
2023-09-27T04:45:41.950Z,101610.38
2023-09-27T04:48:08.489Z,101613.97
2023-09-27T04:50:35.833Z,101609.59
2023-09-27T04:53:02.487Z,101606.75
2023-09-27T04:55:29.523Z,101604.88
2023-09-27T04:57:56.005Z,101605.19
2023-09-27T05:00:23.285Z,101602.34
2023-09-27T05:02:51.323Z,101600.75
2023-09-27T05:05:18.024Z,101595.09
2023-09-27T05:07:44.954Z,101596.84
2023-09-27T05:10:12.108Z,101595.09
2023-09-27T05:12:39.863Z,101587.88
2023-09-27T05:15:08.658Z,101595.56
2023-09-27T05:17:35.265Z,101601.09
2023-09-27T05:20:02.121Z,101594.34
2023-09-27T05:22:28.594Z,101597.94
2023-09-27T05:24:55.069Z,101610.06
2023-09-27T05:27:22.000Z,101603.59
2023-09-27T05:29:48.701Z,101610.53
2023-09-27T05:32:15.222Z,101610.88
2023-09-27T05:34:41.739Z,101618.09
2023-09-27T05:37:08.207Z,101610.53
2023-09-27T05:39:34.690Z,101617.00
2023-09-27T05:42:01.164Z,101619.38
2023-09-27T05:44:27.778Z,101621.41
2023-09-27T05:46:55.059Z,101622.66
2023-09-27T05:49:21.861Z,101626.28
2023-09-27T05:51:48.367Z,101634.00
2023-09-27T05:54:14.900Z,101632.41
2023-09-27T05:56:41.478Z,101627.53
2023-09-27T05:59:10.256Z,101638.59
2023-09-27T06:01:37.049Z,101621.88
2023-09-27T06:04:04.106Z,101618.22
2023-09-27T06:06:30.902Z,101618.69
2023-09-27T06:08:57.490Z,101617.13
2023-09-27T06:11:24.069Z,101629.75
2023-09-27T06:13:50.656Z,101639.47
2023-09-27T06:16:21.069Z,101648.78
2023-09-27T06:18:48.139Z,101656.50
2023-09-27T06:21:15.056Z,101654.94
2023-09-27T06:23:42.081Z,101651.28
2023-09-27T06:26:08.925Z,101632.72
2023-09-27T06:28:39.105Z,101622.97
2023-09-27T06:31:07.338Z,101623.44
2023-09-27T06:33:35.628Z,101632.72
2023-09-27T06:36:02.423Z,101637.13
2023-09-27T06:38:28.938Z,101633.81
2023-09-27T06:40:55.994Z,101624.56
2023-09-27T06:43:22.856Z,101627.06
2023-09-27T06:45:50.299Z,101634.78
2023-09-27T06:48:19.705Z,101639.47
2023-09-27T06:50:47.997Z,101640.75
2023-09-27T06:53:23.519Z,101635.88
2023-09-27T06:55:54.813Z,101633.81
2023-09-27T06:58:25.947Z,101625.63
2023-09-27T07:00:53.850Z,101620.91
2023-09-27T07:03:26.039Z,101619.38
2023-09-27T07:05:53.210Z,101613.69
2023-09-27T07:08:19.968Z,101616.81
2023-09-27T07:10:46.601Z,101622.00
2023-09-27T07:13:13.085Z,101619.66
2023-09-27T07:15:39.862Z,101622.00
2023-09-27T07:18:07.310Z,101625.31
2023-09-27T07:20:35.576Z,101623.16
2023-09-27T07:23:05.520Z,101622.22
2023-09-27T07:25:35.645Z,101615.47
2023-09-27T07:28:06.508Z,101622.22
2023-09-27T07:30:36.222Z,101621.44
2023-09-27T07:33:10.285Z,101640.31
2023-09-27T07:35:42.916Z,101649.59
2023-09-27T07:38:11.699Z,101646.78
2023-09-27T07:40:38.213Z,101637.94
2023-09-27T07:43:04.769Z,101634.97
2023-09-27T07:45:33.517Z,101632.41
2023-09-27T07:48:00.657Z,101632.41
2023-09-27T07:50:29.621Z,101637.59
2023-09-27T07:52:56.599Z,101633.22
2023-09-27T07:55:23.199Z,101637.31
2023-09-27T07:57:50.871Z,101631.31
2023-09-27T08:00:20.092Z,101629.28
2023-09-27T08:02:47.284Z,101630.09
2023-09-27T08:05:17.663Z,101623.63
2023-09-27T08:07:48.242Z,101623.16
2023-09-27T08:12:44.879Z,101610.25
2023-09-27T08:15:13.706Z,101607.41
2023-09-27T08:17:40.782Z,101603.31
2023-09-27T08:20:10.811Z,101604.09
2023-09-27T08:22:40.318Z,101608.03
2023-09-27T08:25:10.319Z,101611.81
2023-09-27T08:27:37.875Z,101623.16
2023-09-27T08:30:07.156Z,101618.75
2023-09-27T08:32:34.896Z,101612.28
2023-09-27T08:35:03.638Z,101593.41
2023-09-27T08:37:30.225Z,101607.91
2023-09-27T08:39:57.076Z,101605.06
2023-09-27T08:42:25.070Z,101605.53
2023-09-27T08:44:54.102Z,101595.78
2023-09-27T08:47:21.093Z,101604.28
2023-09-27T08:49:51.243Z,101597.31
2023-09-27T08:52:18.749Z,101592.63
2023-09-27T08:54:45.262Z,101587.75
2023-09-27T08:57:12.993Z,101587.44
2023-09-27T08:59:40.492Z,101582.56
2023-09-27T09:02:07.995Z,101587.75
2023-09-27T09:04:34.646Z,101580.50
2023-09-27T09:07:03.890Z,101578.94
2023-09-27T09:09:31.753Z,101571.22
2023-09-27T09:12:01.944Z,101574.06
2023-09-27T09:14:50.776Z,101581.94
2023-09-27T09:17:20.734Z,101577.88
2023-09-27T09:20:19.140Z,101575.50
2023-09-27T09:22:47.222Z,101580.25
2023-09-27T09:25:13.776Z,101581.22
2023-09-27T09:27:42.841Z,101568.59
2023-09-27T09:30:13.765Z,101565.28
2023-09-27T09:32:52.001Z,101565.28
2023-09-27T09:35:32.658Z,101563.72
2023-09-27T09:38:00.331Z,101569.88
2023-09-27T09:40:26.884Z,101569.06
2023-09-27T09:42:53.538Z,101578.69
2023-09-27T09:45:21.254Z,101584.66
2023-09-27T09:47:47.871Z,101572.53
2023-09-27T09:50:18.553Z,101565.78
2023-09-27T09:52:59.361Z,101569.22
2023-09-27T09:55:52.070Z,101568.41
2023-09-27T09:58:24.264Z,101561.63
2023-09-27T10:00:55.003Z,101562.25
2023-09-27T10:03:23.614Z,101551.72
2023-09-27T10:05:55.079Z,101558.34
2023-09-27T10:08:21.722Z,101549.03
2023-09-27T10:10:48.403Z,101552.94
2023-09-27T10:13:15.428Z,101544.44
2023-09-27T10:15:43.693Z,101549.34
2023-09-27T10:18:22.650Z,101546.81
2023-09-27T10:21:04.239Z,101556.69
2023-09-27T10:23:34.894Z,101550.44
2023-09-27T10:26:21.215Z,101557.63
2023-09-27T10:29:05.938Z,101557.50
2023-09-27T10:31:33.375Z,101564.09
2023-09-27T10:34:00.523Z,101559.78
2023-09-27T10:36:28.863Z,101549.09
2023-09-27T10:38:55.360Z,101548.44
2023-09-27T10:41:34.652Z,101542.31
2023-09-27T10:44:03.240Z,101536.03
2023-09-27T10:46:50.026Z,101529.88
2023-09-27T10:49:25.927Z,101528.31
2023-09-27T10:52:04.479Z,101527.06
2023-09-27T10:54:34.828Z,101521.69
2023-09-27T10:57:03.472Z,101516.03
2023-09-27T10:59:30.845Z,101516.63
2023-09-27T11:01:57.929Z,101518.19
2023-09-27T11:04:25.845Z,101510.00
2023-09-27T11:06:53.062Z,101509.22
2023-09-27T11:09:20.698Z,101508.72
2023-09-27T11:11:49.202Z,101507.44
2023-09-27T11:14:35.145Z,101502.09
2023-09-27T11:17:16.630Z,101493.16
2023-09-27T11:19:43.203Z,101491.00
2023-09-27T11:22:09.877Z,101472.97
2023-09-27T11:24:42.727Z,101477.25
2023-09-27T11:27:09.657Z,101481.59
2023-09-27T11:29:37.043Z,101472.78
2023-09-27T11:32:03.732Z,101472.66
2023-09-27T11:34:31.324Z,101465.75
2023-09-27T11:37:03.877Z,101466.50
2023-09-27T11:39:51.670Z,101455.97
2023-09-27T11:42:22.922Z,101449.72
2023-09-27T11:45:10.944Z,101452.19
2023-09-27T11:47:50.733Z,101457.66
2023-09-27T11:50:18.775Z,101452.66
2023-09-27T11:52:49.794Z,101455.91
2023-09-27T11:55:17.865Z,101451.94
2023-09-27T11:57:44.604Z,101433.47
2023-09-27T12:00:16.553Z,101431.97
2023-09-27T12:02:52.699Z,101428.47
2023-09-27T12:05:22.912Z,101424.97
2023-09-27T12:07:49.725Z,101413.16
2023-09-27T12:10:17.301Z,101412.34
2023-09-27T12:12:44.230Z,101406.28
2023-09-27T12:15:11.635Z,101405.69
2023-09-27T12:17:39.311Z,101395.31
2023-09-27T12:20:09.220Z,101391.22
2023-09-27T12:22:40.418Z,101384.47
2023-09-27T12:25:07.840Z,101386.53
2023-09-27T12:27:35.049Z,101390.91
2023-09-27T12:30:02.061Z,101390.44
2023-09-27T12:32:28.704Z,101393.78
2023-09-27T12:34:55.361Z,101388.41
2023-09-27T12:37:23.113Z,101388.41
2023-09-27T12:39:49.831Z,101385.34
2023-09-27T12:42:16.341Z,101377.16
2023-09-27T12:44:42.913Z,101373.38
2023-09-27T12:47:09.522Z,101366.31
2023-09-27T12:49:36.978Z,101363.59
2023-09-27T12:52:04.409Z,101360.28
2023-09-27T12:54:31.107Z,101351.47
2023-09-27T12:56:59.143Z,101354.97
2023-09-27T12:59:27.852Z,101343.44
2023-09-27T13:01:55.015Z,101345.91
2023-09-27T13:04:21.798Z,101331.16
2023-09-27T13:06:48.389Z,101325.78
2023-09-27T13:09:18.375Z,101328.13
2023-09-27T13:11:45.060Z,101330.38
2023-09-27T13:14:11.866Z,101332.72
2023-09-27T13:16:38.428Z,101325.28
2023-09-27T13:19:05.025Z,101324.31
2023-09-27T13:21:31.506Z,101324.63
2023-09-27T13:23:58.021Z,101324.63
2023-09-27T13:26:32.696Z,101326.66
2023-09-27T13:28:59.438Z,101317.38
2023-09-27T13:31:31.929Z,101316.91
2023-09-27T13:34:09.508Z,101312.78
2023-09-27T13:36:40.390Z,101313.06
2023-09-27T13:39:07.481Z,101304.88
2023-09-27T13:41:47.378Z,101303.13
2023-09-27T13:44:14.503Z,101296.97
2023-09-27T13:46:41.605Z,101298.69
2023-09-27T13:49:08.796Z,101291.59
2023-09-27T13:51:38.356Z,101296.19
2023-09-27T13:54:06.199Z,101300.56
2023-09-27T13:56:32.912Z,101293.72
2023-09-27T13:59:00.387Z,101285.50
2023-09-27T14:01:27.324Z,101289.03
2023-09-27T14:03:54.052Z,101289.03
2023-09-27T14:06:20.965Z,101283.84
2023-09-27T14:08:50.739Z,101284.81
2023-09-27T14:11:17.926Z,101287.19
2023-09-27T14:13:46.497Z,101279.34
2023-09-27T14:16:14.120Z,101274.94
2023-09-27T14:18:41.784Z,101271.41
2023-09-27T14:21:08.400Z,101272.22
2023-09-27T14:23:37.869Z,101271.16
2023-09-27T14:26:04.697Z,101267.03
2023-09-27T14:28:31.203Z,101271.16
2023-09-27T14:30:57.836Z,101267.25
2023-09-27T14:33:24.851Z,101266.75
2023-09-27T14:35:52.757Z,101262.63
2023-09-27T14:38:19.811Z,101259.31
2023-09-27T14:40:46.729Z,101260.38
2023-09-27T14:43:13.567Z,101255.69
2023-09-27T14:45:40.424Z,101254.72
2023-09-27T14:48:07.316Z,101255.50
2023-09-27T14:50:33.960Z,101253.72
2023-09-27T14:53:00.794Z,101246.78
2023-09-27T14:55:28.095Z,101251.78
2023-09-27T14:57:54.901Z,101248.16
2023-09-27T15:00:23.639Z,101238.84
2023-09-27T15:02:51.220Z,101246.88
2023-09-27T15:05:17.801Z,101247.22
2023-09-27T15:07:44.363Z,101238.69
2023-09-27T15:10:11.248Z,101239.50
2023-09-27T15:12:39.041Z,101241.84
2023-09-27T15:15:09.593Z,101244.84
2023-09-27T15:17:45.571Z,101244.16
2023-09-27T15:20:13.906Z,101247.78
2023-09-27T15:22:42.112Z,101247.22
2023-09-27T15:25:10.135Z,101245.75
2023-09-27T15:27:36.696Z,101234.66
2023-09-27T15:30:03.448Z,101238.00
2023-09-27T15:32:30.285Z,101241.63
2023-09-27T15:34:56.889Z,101247.28
2023-09-27T15:37:23.700Z,101247.28
2023-09-27T15:39:50.173Z,101250.13
2023-09-27T15:42:16.614Z,101240.84
2023-09-27T15:44:43.199Z,101233.13
2023-09-27T15:47:13.051Z,101239.56
2023-09-27T15:49:40.159Z,101243.19
2023-09-27T15:52:06.828Z,101240.84
2023-09-27T15:54:34.238Z,101236.75
2023-09-27T15:57:01.050Z,101230.59
2023-09-27T15:59:27.695Z,101216.41
2023-09-27T16:01:57.433Z,101223.63
2023-09-27T16:04:24.789Z,101213.06
2023-09-27T16:06:53.008Z,101220.00
2023-09-27T16:09:19.636Z,101219.16
2023-09-27T16:11:46.488Z,101220.91
2023-09-27T16:14:13.235Z,101215.53
2023-09-27T16:16:39.863Z,101217.75
2023-09-27T16:19:06.954Z,101221.84
2023-09-27T16:21:33.489Z,101209.25
2023-09-27T16:24:01.297Z,101211.88
2023-09-27T16:26:28.216Z,101209.06
2023-09-27T16:28:54.778Z,101209.34
2023-09-27T16:31:21.818Z,101207.22
2023-09-27T16:33:48.542Z,101213.56
2023-09-27T16:36:18.445Z,101206.34
2023-09-27T16:38:45.232Z,101209.94
2023-09-27T16:41:11.753Z,101208.88
2023-09-27T16:43:40.688Z,101206.63
2023-09-27T16:46:08.482Z,101210.16
2023-09-27T16:48:36.030Z,101204.19
2023-09-27T16:51:02.975Z,101212.59
2023-09-27T16:53:29.614Z,101208.38
2023-09-27T16:55:56.309Z,101207.41
2023-09-27T16:58:26.543Z,101200.38
2023-09-27T17:00:53.271Z,101200.78
2023-09-27T17:03:20.769Z,101203.34
2023-09-27T17:05:47.697Z,101203.34
2023-09-27T17:08:14.475Z,101195.91
2023-09-27T17:10:41.436Z,101200.00
2023-09-27T17:13:09.317Z,101209.00
2023-09-27T17:15:35.833Z,101205.69
2023-09-27T17:18:02.556Z,101204.50
2023-09-27T17:20:29.135Z,101199.78
2023-09-27T17:22:55.667Z,101199.00
2023-09-27T17:25:22.366Z,101196.47
2023-09-27T17:27:48.957Z,101196.78
2023-09-27T17:30:16.658Z,101199.00
2023-09-27T17:32:44.464Z,101191.28
2023-09-27T17:35:11.332Z,101192.84
2023-09-27T17:37:38.165Z,101199.22
2023-09-27T17:40:09.057Z,101184.34
2023-09-27T17:42:37.391Z,101179.16
2023-09-27T17:45:04.411Z,101168.94
2023-09-27T17:47:31.106Z,101161.09
2023-09-27T17:49:57.724Z,101156.22
2023-09-27T17:52:24.272Z,101161.47
2023-09-27T17:54:50.795Z,101160.69
2023-09-27T17:57:18.445Z,101161.25
2023-09-27T17:59:46.523Z,101157.19
2023-09-27T18:02:13.107Z,101156.13
2023-09-27T18:07:06.598Z,101147.63
2023-09-27T18:09:36.976Z,101149.50
2023-09-27T18:12:03.752Z,101159.25
2023-09-27T18:14:30.272Z,101151.84
2023-09-27T18:16:56.979Z,101158.56
2023-09-27T18:19:23.511Z,101161.09
2023-09-27T18:21:50.206Z,101159.53
2023-09-27T18:24:16.772Z,101157.78
2023-09-27T18:26:44.765Z,101161.09
2023-09-27T18:29:11.515Z,101173.72
2023-09-27T18:31:40.027Z,101175.25
2023-09-27T18:34:06.753Z,101174.78
2023-09-27T18:36:34.240Z,101170.88
2023-09-27T18:39:01.248Z,101173.41
2023-09-27T18:41:28.483Z,101178.09
2023-09-27T18:43:55.468Z,101179.38
2023-09-27T18:46:24.512Z,101180.66
2023-09-27T18:48:51.830Z,101173.72
2023-09-27T18:51:22.349Z,101170.88
2023-09-27T18:53:49.471Z,101169.31
2023-09-27T18:56:16.074Z,101168.31
2023-09-27T18:58:42.842Z,101170.09
2023-09-27T19:01:09.451Z,101163.16
2023-09-27T19:03:36.010Z,101152.59
2023-09-27T19:06:02.557Z,101142.81
2023-09-27T19:08:29.048Z,101141.75
2023-09-27T19:10:56.317Z,101130.97
2023-09-27T19:13:22.834Z,101130.22
2023-09-27T19:15:49.542Z,101136.16
2023-09-27T19:18:16.139Z,101137.75
2023-09-27T19:20:42.682Z,101133.81
2023-09-27T19:23:09.450Z,101122.00
2023-09-27T19:25:35.999Z,101130.97
2023-09-27T19:28:03.481Z,101136.47
2023-09-27T19:30:31.927Z,101131.28
2023-09-27T19:32:58.497Z,101123.28
2023-09-27T19:35:25.122Z,101118.88
2023-09-27T19:37:52.118Z,101122.47
2023-09-27T19:40:18.836Z,101117.59
2023-09-27T19:42:47.742Z,101120.94
2023-09-27T19:45:14.427Z,101113.97
2023-09-27T19:50:44.354Z,101105.19
2023-09-27T19:53:10.952Z,101097.34
2023-09-27T19:55:37.783Z,101105.00
2023-09-27T19:58:04.503Z,101092.66
2023-09-27T20:00:31.901Z,101101.09
2023-09-27T20:02:58.496Z,101097.78
2023-09-27T20:05:27.751Z,101092.31
2023-09-27T20:07:54.265Z,101096.97
2023-09-27T20:10:20.775Z,101096.72
2023-09-27T20:12:47.267Z,101101.09
2023-09-27T20:15:13.886Z,101091.59
2023-09-27T20:17:40.839Z,101105.00
2023-09-27T20:20:08.721Z,101093.66
2023-09-27T20:22:35.260Z,101086.47
2023-09-27T20:25:03.826Z,101084.25
2023-09-27T20:27:30.356Z,101091.41
2023-09-27T20:29:56.910Z,101099.06
2023-09-27T20:32:23.571Z,101100.81
2023-09-27T20:34:50.443Z,101099.53
2023-09-27T20:37:17.388Z,101092.31
2023-09-27T20:39:43.956Z,101095.66
2023-09-27T20:42:10.460Z,101094.38
2023-09-27T20:44:37.321Z,101093.31
2023-09-27T20:47:03.873Z,101090.66
2023-09-27T20:49:30.583Z,101091.16
2023-09-27T20:51:57.189Z,101084.19
2023-09-27T20:54:24.054Z,101091.72
2023-09-27T20:56:51.538Z,101079.13
2023-09-27T20:59:18.142Z,101080.38
2023-09-27T21:01:45.801Z,101079.13
2023-09-27T21:04:15.656Z,101089.38
2023-09-27T21:06:43.119Z,101082.72
2023-09-27T21:09:11.015Z,101078.34
2023-09-27T21:11:37.549Z,101078.03
2023-09-27T21:14:04.391Z,101085.00
2023-09-27T21:16:32.630Z,101097.59
2023-09-27T21:19:00.174Z,101090.66
2023-09-27T21:21:26.651Z,101089.38
2023-09-27T21:23:53.822Z,101088.63
2023-09-27T21:26:20.729Z,101085.00
2023-09-27T21:28:47.477Z,101085.00
2023-09-27T21:31:17.221Z,101073.47
2023-09-27T21:33:44.250Z,101070.13
2023-09-27T21:36:11.446Z,101061.03
2023-09-27T21:38:38.482Z,101057.38
2023-09-27T21:41:05.327Z,101050.50
2023-09-27T21:43:33.926Z,101051.44
2023-09-27T21:46:01.444Z,101052.22
2023-09-27T21:48:28.058Z,101047.47
2023-09-27T21:50:54.674Z,101038.69
2023-09-27T21:53:21.186Z,101033.16
2023-09-27T21:55:47.702Z,101032.50
2023-09-27T21:58:14.232Z,101034.06
2023-09-27T22:00:40.736Z,101033.00
2023-09-27T22:03:09.302Z,101007.19
2023-09-27T22:05:36.072Z,101002.13
2023-09-27T22:08:02.779Z,101012.66
2023-09-27T22:10:43.515Z,101009.84
2023-09-27T22:13:23.576Z,101011.63
2023-09-27T22:15:54.787Z,101005.72
2023-09-27T22:18:23.716Z,101003.38
2023-09-27T22:20:50.632Z,101006.44
2023-09-27T22:23:40.454Z,101020.59
2023-09-27T22:26:17.016Z,101021.66
2023-09-27T22:28:49.303Z,101017.84
2023-09-27T22:31:27.813Z,101021.97
2023-09-27T22:33:57.679Z,101009.06
2023-09-27T22:36:27.523Z,101004.97
2023-09-27T22:38:54.028Z,100993.91
2023-09-27T22:41:21.514Z,100989.50
2023-09-27T22:43:53.406Z,101000.84
2023-09-27T22:46:23.004Z,100988.72
2023-09-27T22:48:51.578Z,100977.69
2023-09-27T22:51:18.340Z,100959.13
2023-09-27T22:53:45.882Z,100954.22
2023-09-27T22:56:12.497Z,100957.06
2023-09-27T22:58:39.073Z,100960.38
2023-09-27T23:01:21.810Z,100955.50
2023-09-27T23:03:49.022Z,100951.63
2023-09-27T23:06:16.446Z,100964.50
2023-09-27T23:08:46.756Z,100971.22
2023-09-27T23:11:13.630Z,100972.50
2023-09-27T23:13:49.662Z,100973.78
2023-09-27T23:16:34.467Z,100970.97
2023-09-27T23:19:05.619Z,100975.34
2023-09-27T23:21:33.412Z,100969.69
2023-09-27T23:24:26.575Z,100972.50
2023-09-27T23:26:53.378Z,100972.50
2023-09-27T23:29:30.088Z,100973.31
2023-09-27T23:32:00.078Z,100978.97
2023-09-27T23:34:28.172Z,100971.53
2023-09-27T23:37:10.032Z,100968.88
2023-09-27T23:39:45.705Z,100964.28
2023-09-27T23:42:28.795Z,100955.00
2023-09-27T23:45:09.241Z,100961.44
2023-09-27T23:47:44.232Z,100963.09
2023-09-27T23:50:12.453Z,100959.47
2023-09-27T23:52:42.248Z,100966.41
2023-09-27T23:55:09.863Z,100966.72
2023-09-27T23:57:37.069Z,100973.13
